Time;durP1;ratioP1;P1;durP2;ratioP2;P2;SDS_P1;SDS_P2;PMS_P1;PMS_P2;Temp;Humidity;BMP_temperature;BMP_pressure;BME280_temperature;BME280_humidity;BME280_pressure;Samples;Min_cycle;Max_cycle;Signal;HPM_P1;HPM_P2
2022/07/19 00:00:23;;;;;;;6.43;4.30;;;;;;;;;;5113475;27;20503;-55
2022/07/19 00:02:48;;;;;;;5.47;3.97;;;;;;;;;;5112250;28;20529;-55
2022/07/19 00:05:14;;;;;;;4.28;3.47;;;;;;;;;;5114081;27;20043;-55
2022/07/19 00:07:40;;;;;;;5.32;3.78;;;;;;;;;;5113173;27;20419;-54
2022/07/19 00:10:06;;;;;;;5.30;4.80;;;;;;;;;;5115702;27;20051;-53
2022/07/19 00:12:32;;;;;;;6.50;3.60;;;;;;;;;;5115683;27;20130;-55
2022/07/19 00:14:57;;;;;;;7.53;6.90;;;;;;;;;;5115153;28;20122;-52
2022/07/19 00:17:22;;;;;;;6.82;5.80;;;;;;;;;;5111700;27;20047;-54
2022/07/19 00:19:48;;;;;;;4.78;4.28;;;;;;;;;;5113205;27;20392;-56
2022/07/19 00:22:13;;;;;;;9.52;4.53;;;;;;;;;;5117851;27;20503;-56
2022/07/19 00:24:38;;;;;;;5.80;4.82;;;;;;;;;;5115175;27;20597;-56
2022/07/19 00:27:04;;;;;;;5.28;4.78;;;;;;;;;;5116692;27;20512;-55
2022/07/19 00:29:29;;;;;;;4.80;4.13;;;;;;;;;;5116360;27;20455;-55
2022/07/19 00:31:54;;;;;;;4.97;4.47;;;;;;;;;;5114266;27;20050;-52
2022/07/19 00:34:19;;;;;;;6.22;5.25;;;;;;;;;;5114466;27;20047;-56
2022/07/19 00:36:45;;;;;;;8.38;5.60;;;;;;;;;;5115468;27;20520;-55
2022/07/19 00:39:10;;;;;;;12.80;5.50;;;;;;;;;;5112158;27;20101;-55
2022/07/19 00:41:40;;;;;;;10.55;5.10;;;;;;;;;;5113353;27;20039;-55
2022/07/19 00:44:06;;;;;;;9.52;4.18;;;;;;;;;;5114045;27;20052;-56
2022/07/19 00:46:31;;;;;;;9.10;4.97;;;;;;;;;;5114815;27;20526;-56
2022/07/19 00:48:56;;;;;;;5.07;4.57;;;;;;;;;;5115271;27;20180;-56
2022/07/19 00:51:22;;;;;;;5.60;5.03;;;;;;;;;;5116756;27;20047;-56
2022/07/19 00:53:47;;;;;;;4.68;4.15;;;;;;;;;;5111696;28;20042;-54
2022/07/19 00:56:13;;;;;;;5.53;4.85;;;;;;;;;;5114027;27;20074;-55
2022/07/19 00:58:39;;;;;;;4.82;3.85;;;;;;;;;;5112017;27;20544;-53
2022/07/19 01:01:05;;;;;;;5.80;4.80;;;;;;;;;;5116628;27;20047;-54
2022/07/19 01:03:31;;;;;;;6.53;5.93;;;;;;;;;;5107188;27;20040;-54
2022/07/19 01:05:56;;;;;;;7.22;5.00;;;;;;;;;;5112214;27;20100;-54
2022/07/19 01:08:22;;;;;;;8.75;5.00;;;;;;;;;;5118109;27;20498;-55
2022/07/19 01:10:47;;;;;;;6.38;5.10;;;;;;;;;;5113581;27;20073;-56
2022/07/19 01:13:13;;;;;;;12.30;4.88;;;;;;;;;;5112296;27;20032;-56
2022/07/19 01:15:39;;;;;;;5.47;4.85;;;;;;;;;;5111950;27;20057;-56
2022/07/19 01:18:05;;;;;;;6.72;5.95;;;;;;;;;;5112196;27;20067;-56
2022/07/19 01:20:30;;;;;;;6.78;5.72;;;;;;;;;;5114975;27;20122;-56
2022/07/19 01:22:55;;;;;;;7.18;5.72;;;;;;;;;;5112957;28;20135;-56
2022/07/19 01:25:22;;;;;;;6.35;5.30;;;;;;;;;;5112394;27;20081;-51
2022/07/19 01:27:51;;;;;;;7.68;4.80;;;;;;;;;;5110233;27;20039;-57
2022/07/19 01:30:18;;;;;;;6.10;5.60;;;;;;;;;;5112160;27;20104;-53
2022/07/19 01:32:43;;;;;;;9.38;5.80;;;;;;;;;;5114033;27;20490;-51
2022/07/19 01:35:09;;;;;;;6.70;6.07;;;;;;;;;;5111314;27;20047;-56
2022/07/19 01:37:34;;;;;;;8.10;6.00;;;;;;;;;;5111711;27;20036;-57
2022/07/19 01:40:00;;;;;;;7.63;4.75;;;;;;;;;;5114797;27;20040;-56
2022/07/19 01:42:26;;;;;;;6.47;5.03;;;;;;;;;;5113781;27;20097;-56
2022/07/19 01:44:51;;;;;;;8.88;4.57;;;;;;;;;;5113657;27;20040;-56
2022/07/19 01:47:16;;;;;;;4.97;4.57;;;;;;;;;;5113734;27;20581;-56
2022/07/19 01:49:42;;;;;;;17.40;5.38;;;;;;;;;;5116118;27;20079;-57
2022/07/19 01:52:07;;;;;;;5.18;3.88;;;;;;;;;;5112038;27;20628;-54
2022/07/19 01:54:32;;;;;;;4.63;4.22;;;;;;;;;;5115646;27;20031;-56
2022/07/19 01:56:58;;;;;;;5.00;4.60;;;;;;;;;;5096111;28;20050;-56
2022/07/19 01:59:24;;;;;;;6.07;5.35;;;;;;;;;;5110061;27;20092;-55
2022/07/19 02:01:54;;;;;;;4.95;4.47;;;;;;;;;;5114632;27;20051;-54
2022/07/19 02:04:19;;;;;;;5.05;4.53;;;;;;;;;;5117170;27;20051;-56
2022/07/19 02:06:45;;;;;;;5.15;4.15;;;;;;;;;;5113711;28;20039;-55
2022/07/19 02:09:12;;;;;;;5.97;4.88;;;;;;;;;;5112163;27;20535;-56
2022/07/19 02:11:38;;;;;;;5.20;4.32;;;;;;;;;;5114714;27;20216;-55
2022/07/19 02:14:04;;;;;;;5.18;3.90;;;;;;;;;;5114301;28;20177;-55
2022/07/19 02:16:29;;;;;;;5.80;4.47;;;;;;;;;;5115373;27;20105;-55
2022/07/19 02:18:55;;;;;;;5.10;4.10;;;;;;;;;;5111447;27;20047;-54
2022/07/19 02:21:20;;;;;;;5.28;4.70;;;;;;;;;;5108145;27;20040;-56
2022/07/19 02:23:45;;;;;;;7.68;4.30;;;;;;;;;;5114244;27;20043;-55
2022/07/19 02:26:11;;;;;;;7.32;4.85;;;;;;;;;;5110878;28;20047;-54
2022/07/19 02:28:36;;;;;;;6.47;5.20;;;;;;;;;;5117478;27;20071;-53
2022/07/19 02:31:01;;;;;;;4.93;4.10;;;;;;;;;;5113978;27;20043;-55
2022/07/19 02:33:27;;;;;;;5.43;4.47;;;;;;;;;;5109257;27;20047;-55
2022/07/19 02:35:52;;;;;;;5.78;5.18;;;;;;;;;;5115708;28;20058;-54
2022/07/19 02:38:17;;;;;;;8.18;5.68;;;;;;;;;;5110110;27;20040;-54
2022/07/19 02:40:53;;;;;;;6.57;5.75;;;;;;;;;;5110724;27;20047;-55
2022/07/19 02:43:18;;;;;;;7.10;4.90;;;;;;;;;;5109087;27;20055;-55
2022/07/19 02:45:43;;;;;;;6.28;5.70;;;;;;;;;;5111822;27;20223;-54
2022/07/19 02:48:09;;;;;;;6.85;6.15;;;;;;;;;;5114081;27;20048;-53
2022/07/19 02:50:40;;;;;;;5.90;5.32;;;;;;;;;;5115201;27;20114;-52
2022/07/19 02:53:06;;;;;;;5.85;5.25;;;;;;;;;;5106769;27;20042;-53
2022/07/19 02:55:31;;;;;;;8.85;6.47;;;;;;;;;;5114072;27;20047;-55
2022/07/19 02:57:56;;;;;;;7.03;5.43;;;;;;;;;;5113902;27;20035;-53
2022/07/19 03:00:22;;;;;;;6.85;5.50;;;;;;;;;;5112541;27;20127;-54
2022/07/19 03:02:47;;;;;;;5.63;5.13;;;;;;;;;;5115669;27;20048;-56
2022/07/19 03:05:12;;;;;;;5.60;5.10;;;;;;;;;;5109739;27;20052;-55
2022/07/19 03:07:39;;;;;;;5.82;4.97;;;;;;;;;;5112540;28;20521;-54
2022/07/19 03:10:05;;;;;;;7.78;5.00;;;;;;;;;;5114508;27;20047;-55
2022/07/19 03:12:30;;;;;;;5.93;5.28;;;;;;;;;;5111479;28;20073;-54
2022/07/19 03:14:55;;;;;;;6.05;5.45;;;;;;;;;;5114548;27;20032;-52
2022/07/19 03:17:21;;;;;;;7.18;6.05;;;;;;;;;;5110222;27;20434;-53
2022/07/19 03:19:46;;;;;;;5.05;4.63;;;;;;;;;;5113420;27;20457;-54
2022/07/19 03:22:12;;;;;;;7.18;6.47;;;;;;;;;;5109764;27;20036;-51
2022/07/19 03:24:37;;;;;;;8.27;5.18;;;;;;;;;;5111600;28;20152;-56
2022/07/19 03:27:03;;;;;;;4.85;4.35;;;;;;;;;;5114379;27;20465;-56
2022/07/19 03:29:28;;;;;;;5.50;4.95;;;;;;;;;;5111626;28;20059;-55
2022/07/19 03:31:53;;;;;;;5.00;4.50;;;;;;;;;;5114536;27;20036;-52
2022/07/19 03:34:19;;;;;;;5.93;4.72;;;;;;;;;;5117136;27;20039;-55
2022/07/19 03:36:44;;;;;;;8.70;4.95;;;;;;;;;;5109679;27;20066;-55
2022/07/19 03:39:09;;;;;;;4.85;4.45;;;;;;;;;;5111410;28;20101;-54
2022/07/19 03:41:35;;;;;;;6.10;5.55;;;;;;;;;;5111618;27;20043;-56
2022/07/19 03:44:00;;;;;;;9.52;4.97;;;;;;;;;;5113047;27;20605;-53
2022/07/19 03:46:28;;;;;;;11.75;5.35;;;;;;;;;;5109534;27;20436;-55
2022/07/19 03:48:53;;;;;;;7.47;6.53;;;;;;;;;;5112889;27;20055;-54
2022/07/19 03:51:18;;;;;;;8.02;6.57;;;;;;;;;;5110754;27;20065;-55
2022/07/19 03:53:45;;;;;;;6.45;5.82;;;;;;;;;;5112153;27;20043;-54
2022/07/19 03:56:10;;;;;;;8.05;7.25;;;;;;;;;;5109266;27;20036;-55
2022/07/19 03:58:36;;;;;;;6.32;5.72;;;;;;;;;;5118820;27;20629;-54
2022/07/19 04:01:02;;;;;;;8.25;6.63;;;;;;;;;;5116713;27;20058;-54
2022/07/19 04:03:27;;;;;;;5.28;4.78;;;;;;;;;;5116473;27;20043;-55
2022/07/19 04:05:52;;;;;;;7.68;5.53;;;;;;;;;;5117878;27;20054;-55
2022/07/19 04:08:18;;;;;;;5.60;5.00;;;;;;;;;;5119671;27;20516;-52
2022/07/19 04:10:43;;;;;;;8.05;5.72;;;;;;;;;;5112263;27;20553;-55
2022/07/19 04:13:08;;;;;;;7.07;6.35;;;;;;;;;;5115456;27;20095;-56
2022/07/19 04:15:34;;;;;;;9.57;5.43;;;;;;;;;;5115269;27;20034;-55
2022/07/19 04:17:59;;;;;;;5.70;5.22;;;;;;;;;;5112894;28;20062;-54
2022/07/19 04:20:24;;;;;;;8.02;6.35;;;;;;;;;;5110253;27;20498;-55
2022/07/19 04:22:50;;;;;;;7.07;5.97;;;;;;;;;;5114573;27;20046;-55
2022/07/19 04:25:16;;;;;;;7.20;5.85;;;;;;;;;;5115670;27;20223;-55
2022/07/19 04:27:44;;;;;;;6.45;5.45;;;;;;;;;;5114820;27;20047;-55
2022/07/19 04:30:10;;;;;;;5.30;4.47;;;;;;;;;;5110141;27;20463;-55
2022/07/19 04:32:35;;;;;;;6.05;5.28;;;;;;;;;;5112830;27;20035;-54
2022/07/19 04:35:01;;;;;;;15.63;6.63;;;;;;;;;;5114074;27;20032;-56
2022/07/19 04:37:27;;;;;;;7.63;4.88;;;;;;;;;;5113369;27;20047;-54
2022/07/19 04:39:52;;;;;;;5.13;4.65;;;;;;;;;;5093917;28;20047;-53
2022/07/19 04:42:17;;;;;;;8.07;6.15;;;;;;;;;;5112038;27;20567;-55
2022/07/19 04:44:43;;;;;;;7.10;5.57;;;;;;;;;;5110366;27;20915;-53
2022/07/19 04:47:09;;;;;;;7.75;6.13;;;;;;;;;;5114472;27;20131;-50
2022/07/19 04:49:34;;;;;;;7.78;6.95;;;;;;;;;;5111982;27;20744;-56
2022/07/19 04:52:00;;;;;;;8.40;6.20;;;;;;;;;;5114438;27;20097;-56
2022/07/19 04:54:26;;;;;;;9.20;6.68;;;;;;;;;;5109296;28;20128;-54
2022/07/19 04:56:51;;;;;;;7.60;6.68;;;;;;;;;;5111000;27;20584;-55
2022/07/19 04:59:17;;;;;;;6.55;5.95;;;;;;;;;;5114217;27;20046;-53
2022/07/19 05:01:42;;;;;;;15.95;6.47;;;;;;;;;;5116380;27;20054;-48
2022/07/19 05:04:10;;;;;;;12.73;7.25;;;;;;;;;;5117248;27;20040;-52
2022/07/19 05:06:36;;;;;;;8.75;5.70;;;;;;;;;;5094830;28;20381;-54
2022/07/19 05:09:01;;;;;;;5.43;4.82;;;;;;;;;;5110079;27;20159;-50
2022/07/19 05:11:26;;;;;;;7.90;6.63;;;;;;;;;;5112097;27;20671;-55
2022/07/19 05:13:52;;;;;;;9.05;6.57;;;;;;;;;;5108322;27;20055;-55
2022/07/19 05:16:17;;;;;;;6.90;5.47;;;;;;;;;;5110828;27;20643;-55
2022/07/19 05:18:42;;;;;;;6.68;6.07;;;;;;;;;;5115439;27;20082;-55
2022/07/19 05:21:08;;;;;;;6.55;5.82;;;;;;;;;;5109534;27;20054;-53
2022/07/19 05:23:33;;;;;;;12.00;8.40;;;;;;;;;;5111456;27;20054;-51
2022/07/19 05:25:58;;;;;;;7.65;6.50;;;;;;;;;;5110444;27;20044;-54
2022/07/19 05:28:24;;;;;;;8.10;6.20;;;;;;;;;;5108603;27;20051;-49
2022/07/19 05:30:49;;;;;;;9.05;6.00;;;;;;;;;;5116041;27;20039;-53
2022/07/19 05:33:16;;;;;;;5.43;4.72;;;;;;;;;;5091060;28;20036;-49
2022/07/19 05:35:41;;;;;;;7.65;5.10;;;;;;;;;;5114136;28;20048;-52
2022/07/19 05:38:06;;;;;;;7.35;4.75;;;;;;;;;;5110993;27;20115;-51
2022/07/19 05:40:32;;;;;;;16.50;6.43;;;;;;;;;;5113642;27;20040;-55
2022/07/19 05:42:57;;;;;;;13.25;7.28;;;;;;;;;;5113147;27;20042;-50
2022/07/19 05:45:22;;;;;;;6.50;5.43;;;;;;;;;;5112587;27;20074;-55
2022/07/19 05:47:48;;;;;;;7.60;5.80;;;;;;;;;;5111638;27;20519;-55
2022/07/19 05:50:13;;;;;;;26.17;7.07;;;;;;;;;;5115333;27;20047;-51
2022/07/19 05:52:38;;;;;;;7.90;7.10;;;;;;;;;;5117268;27;20959;-51
2022/07/19 05:55:05;;;;;;;15.20;6.43;;;;;;;;;;5118338;27;20054;-55
2022/07/19 05:57:30;;;;;;;13.52;8.45;;;;;;;;;;5114125;27;20047;-52
2022/07/19 05:59:55;;;;;;;22.30;12.18;;;;;;;;;;5115351;27;20586;-53
2022/07/19 06:02:21;;;;;;;18.25;7.43;;;;;;;;;;5114930;27;20144;-52
2022/07/19 06:04:46;;;;;;;10.40;7.75;;;;;;;;;;5115168;27;20060;-54
2022/07/19 06:07:12;;;;;;;9.73;8.85;;;;;;;;;;5114961;27;20054;-56
2022/07/19 06:09:37;;;;;;;13.45;12.05;;;;;;;;;;5111388;27;20112;-54
2022/07/19 06:12:02;;;;;;;9.70;7.55;;;;;;;;;;5113160;27;20047;-51
2022/07/19 06:14:28;;;;;;;16.25;9.05;;;;;;;;;;5110916;27;20051;-54
2022/07/19 06:16:53;;;;;;;7.93;6.55;;;;;;;;;;5109708;27;20044;-54
2022/07/19 06:19:19;;;;;;;10.77;7.88;;;;;;;;;;5111782;27;20051;-55
2022/07/19 06:21:44;;;;;;;18.70;8.82;;;;;;;;;;5111461;28;20609;-48
2022/07/19 06:24:10;;;;;;;6.53;5.95;;;;;;;;;;5113654;27;20081;-48
2022/07/19 06:26:35;;;;;;;7.53;6.05;;;;;;;;;;5116451;27;20589;-51
2022/07/19 06:29:00;;;;;;;11.70;8.43;;;;;;;;;;5112521;27;20058;-47
2022/07/19 06:31:26;;;;;;;8.35;5.75;;;;;;;;;;5091016;28;20048;-51
2022/07/19 06:33:51;;;;;;;6.78;5.72;;;;;;;;;;5111895;27;20491;-47
2022/07/19 06:36:17;;;;;;;21.90;6.18;;;;;;;;;;5109004;27;20516;-45
2022/07/19 06:38:42;;;;;;;7.10;6.50;;;;;;;;;;5109397;28;20036;-48
2022/07/19 06:41:08;;;;;;;6.50;5.20;;;;;;;;;;5109366;28;20046;-46
2022/07/19 06:43:33;;;;;;;17.55;11.75;;;;;;;;;;5112436;27;20056;-46
2022/07/19 06:45:59;;;;;;;63.00;39.83;;;;;;;;;;5111646;27;20427;-47
2022/07/19 06:48:24;;;;;;;117.97;80.72;;;;;;;;;;5112471;28;20051;-47
2022/07/19 06:50:49;;;;;;;81.75;65.30;;;;;;;;;;5113352;27;20653;-47
2022/07/19 06:53:15;;;;;;;39.58;35.72;;;;;;;;;;5112902;27;20130;-48
2022/07/19 06:55:40;;;;;;;43.55;29.05;;;;;;;;;;5116760;28;20054;-48
2022/07/19 06:58:05;;;;;;;18.58;16.77;;;;;;;;;;5114793;27;20087;-48
2022/07/19 07:00:31;;;;;;;17.98;15.80;;;;;;;;;;5112323;27;20047;-47
2022/07/19 07:02:56;;;;;;;13.13;8.98;;;;;;;;;;5112813;27;20068;-48
2022/07/19 07:05:22;;;;;;;14.88;5.60;;;;;;;;;;5112668;27;20034;-49
2022/07/19 07:07:48;;;;;;;8.95;3.95;;;;;;;;;;5111785;27;20522;-45
2022/07/19 07:10:14;;;;;;;5.25;3.83;;;;;;;;;;5114408;27;20120;-45
2022/07/19 07:12:39;;;;;;;3.67;3.10;;;;;;;;;;5110460;28;20039;-49
2022/07/19 07:15:06;;;;;;;5.00;4.50;;;;;;;;;;5111366;27;20384;-48
2022/07/19 07:17:31;;;;;;;3.92;3.53;;;;;;;;;;5106728;28;20047;-48
2022/07/19 07:19:56;;;;;;;3.20;2.83;;;;;;;;;;5107102;27;20537;-49
2022/07/19 07:22:22;;;;;;;3.72;3.42;;;;;;;;;;5113151;27;20147;-45
2022/07/19 07:24:47;;;;;;;5.40;3.95;;;;;;;;;;5106201;28;20435;-49
2022/07/19 07:27:12;;;;;;;9.20;3.25;;;;;;;;;;5111040;27;20491;-50
2022/07/19 07:29:38;;;;;;;4.45;3.95;;;;;;;;;;5108848;27;20059;-50
2022/07/19 07:32:03;;;;;;;15.27;5.80;;;;;;;;;;5115482;27;20050;-47
2022/07/19 07:34:29;;;;;;;6.20;3.65;;;;;;;;;;5116372;27;20048;-50
2022/07/19 07:36:54;;;;;;;17.58;5.43;;;;;;;;;;5117769;27;20522;-48
2022/07/19 07:39:19;;;;;;;6.50;2.90;;;;;;;;;;5117153;27;20146;-47
2022/07/19 07:41:44;;;;;;;9.00;5.13;;;;;;;;;;5113539;27;20047;-49
2022/07/19 07:44:10;;;;;;;2.72;2.50;;;;;;;;;;5114363;27;20424;-46
2022/07/19 07:46:35;;;;;;;5.43;3.30;;;;;;;;;;5116363;28;20043;-47
2022/07/19 07:49:00;;;;;;;8.77;3.95;;;;;;;;;;5115009;27;20383;-49
2022/07/19 07:51:26;;;;;;;5.72;5.20;;;;;;;;;;5114347;27;20130;-50
2022/07/19 07:53:51;;;;;;;5.35;4.43;;;;;;;;;;5116038;27;20114;-55
2022/07/19 07:56:16;;;;;;;3.92;3.33;;;;;;;;;;5115405;27;20082;-54
2022/07/19 07:58:42;;;;;;;3.83;3.53;;;;;;;;;;5114599;27;20052;-55
2022/07/19 08:01:07;;;;;;;10.23;5.43;;;;;;;;;;5116796;28;20107;-52
2022/07/19 08:03:32;;;;;;;4.97;3.15;;;;;;;;;;5113216;27;20070;-58
2022/07/19 08:05:58;;;;;;;2.92;2.55;;;;;;;;;;5111634;27;20078;-53
2022/07/19 08:08:26;;;;;;;3.80;2.92;;;;;;;;;;5114581;28;20479;-54
2022/07/19 08:10:52;;;;;;;3.67;3.28;;;;;;;;;;5113483;27;20466;-56
2022/07/19 08:13:18;;;;;;;17.27;4.25;;;;;;;;;;5111629;27;20031;-56
2022/07/19 08:15:43;;;;;;;6.10;3.95;;;;;;;;;;5116219;27;20493;-57
2022/07/19 08:18:08;;;;;;;7.32;4.10;;;;;;;;;;5115931;27;20039;-57
2022/07/19 08:20:34;;;;;;;6.15;4.85;;;;;;;;;;5116946;27;20054;-55
2022/07/19 08:22:59;;;;;;;4.22;3.33;;;;;;;;;;5113954;28;20213;-56
2022/07/19 08:25:24;;;;;;;7.05;4.63;;;;;;;;;;5117829;27;20513;-56
2022/07/19 08:27:50;;;;;;;3.72;2.30;;;;;;;;;;5115031;28;20082;-56
2022/07/19 08:30:15;;;;;;;3.03;2.25;;;;;;;;;;5112460;27;20062;-57
2022/07/19 08:32:41;;;;;;;2.15;1.55;;;;;;;;;;5111118;27;20059;-55
2022/07/19 08:35:07;;;;;;;4.70;2.50;;;;;;;;;;5113342;28;20441;-55
2022/07/19 08:37:33;;;;;;;15.52;3.75;;;;;;;;;;5113414;27;20100;-53
2022/07/19 08:39:58;;;;;;;4.22;2.63;;;;;;;;;;5115440;27;20047;-55
2022/07/19 08:42:24;;;;;;;4.93;3.50;;;;;;;;;;5115782;27;20074;-57
2022/07/19 08:44:51;;;;;;;4.28;2.45;;;;;;;;;;5116841;27;20131;-57
2022/07/19 08:47:18;;;;;;;2.88;2.05;;;;;;;;;;5115169;27;20495;-56
2022/07/19 08:49:43;;;;;;;4.18;3.08;;;;;;;;;;5112018;27;20031;-57
2022/07/19 08:52:09;;;;;;;47.70;10.50;;;;;;;;;;5117367;27;20471;-57
2022/07/19 08:54:34;;;;;;;6.35;2.47;;;;;;;;;;5108710;27;20376;-56
2022/07/19 08:59:43;;;;;;;3.63;2.47;;;;;;;;;;5113388;28;20058;-57
2022/07/19 09:02:09;;;;;;;7.88;2.83;;;;;;;;;;5115115;27;20051;-56
2022/07/19 09:04:34;;;;;;;3.88;1.48;;;;;;;;;;5115224;27;20039;-56
2022/07/19 09:07:00;;;;;;;4.18;2.10;;;;;;;;;;5109494;28;20043;-57
2022/07/19 09:09:27;;;;;;;2.50;1.85;;;;;;;;;;5112123;27;20067;-56
2022/07/19 09:11:53;;;;;;;2.60;1.98;;;;;;;;;;5107985;27;20046;-56
2022/07/19 09:14:21;;;;;;;7.47;1.92;;;;;;;;;;5116119;27;20134;-55
2022/07/19 09:16:51;;;;;;;5.70;3.42;;;;;;;;;;5116200;27;20055;-56
2022/07/19 09:19:16;;;;;;;2.50;1.47;;;;;;;;;;5110207;27;20456;-56
2022/07/19 09:21:52;;;;;;;2.33;1.98;;;;;;;;;;5108264;27;20546;-57
2022/07/19 09:24:18;;;;;;;4.95;3.03;;;;;;;;;;5113839;27;20596;-54
2022/07/19 09:27:02;;;;;;;4.28;1.80;;;;;;;;;;5112031;27;20059;-56
2022/07/19 09:29:28;;;;;;;5.47;2.28;;;;;;;;;;5112345;27;20048;-54
2022/07/19 09:32:02;;;;;;;3.42;1.83;;;;;;;;;;5112479;27;20040;-55
2022/07/19 09:34:31;;;;;;;2.03;1.55;;;;;;;;;;5114957;27;20108;-55
2022/07/19 09:37:13;;;;;;;4.55;2.15;;;;;;;;;;5114686;27;20058;-56
2022/07/19 09:39:41;;;;;;;2.50;1.52;;;;;;;;;;5114998;27;20078;-54
2022/07/19 09:42:07;;;;;;;3.53;2.50;;;;;;;;;;5115875;27;20055;-54
2022/07/19 09:44:32;;;;;;;4.18;3.50;;;;;;;;;;5112658;27;20270;-53
2022/07/19 09:46:57;;;;;;;2.97;2.28;;;;;;;;;;5113773;27;20466;-51
2022/07/19 09:49:23;;;;;;;13.70;3.63;;;;;;;;;;5111749;27;20035;-53
2022/07/19 09:51:49;;;;;;;2.88;1.92;;;;;;;;;;5111349;27;20643;-56
2022/07/19 09:54:17;;;;;;;10.65;2.53;;;;;;;;;;5113759;27;20081;-54
2022/07/19 09:56:43;;;;;;;3.72;2.50;;;;;;;;;;5111834;27;20522;-52
2022/07/19 09:59:08;;;;;;;5.18;3.47;;;;;;;;;;5112326;27;20040;-56
2022/07/19 10:01:35;;;;;;;2.83;2.28;;;;;;;;;;5110023;27;20104;-57
2022/07/19 10:04:07;;;;;;;3.08;2.50;;;;;;;;;;5107532;27;20058;-57
2022/07/19 10:06:33;;;;;;;3.92;3.00;;;;;;;;;;5111351;27;20410;-57
2022/07/19 10:08:58;;;;;;;5.43;2.33;;;;;;;;;;5107653;28;20036;-56
2022/07/19 10:11:24;;;;;;;9.63;8.73;;;;;;;;;;5110263;28;20032;-55
2022/07/19 10:13:50;;;;;;;3.33;2.78;;;;;;;;;;5112827;27;20147;-56
2022/07/19 10:16:19;;;;;;;4.00;2.92;;;;;;;;;;5112727;27;20076;-56
2022/07/19 10:18:51;;;;;;;1.50;1.17;;;;;;;;;;5113174;27;20041;-57
2022/07/19 10:21:16;;;;;;;2.10;1.88;;;;;;;;;;5115427;27;20039;-56
2022/07/19 10:23:49;;;;;;;4.65;2.70;;;;;;;;;;5110454;27;20050;-57
2022/07/19 10:26:33;;;;;;;2.75;2.08;;;;;;;;;;5109261;27;20138;-55
2022/07/19 10:29:08;;;;;;;6.07;2.45;;;;;;;;;;5111322;27;20131;-56
2022/07/19 10:31:35;;;;;;;4.80;2.80;;;;;;;;;;5114903;27;20133;-57
2022/07/19 10:34:04;;;;;;;3.25;2.58;;;;;;;;;;5111256;27;20114;-57
2022/07/19 10:36:35;;;;;;;6.20;2.28;;;;;;;;;;5110605;28;20047;-57
2022/07/19 10:39:20;;;;;;;4.72;2.15;;;;;;;;;;5113511;27;20048;-56
2022/07/19 10:42:04;;;;;;;1.88;1.58;;;;;;;;;;5112332;27;20039;-56
2022/07/19 10:44:29;;;;;;;3.45;2.50;;;;;;;;;;5112503;27;20074;-56
2022/07/19 10:46:55;;;;;;;1.85;1.52;;;;;;;;;;5112802;28;20529;-57
2022/07/19 10:49:53;;;;;;;2.35;2.03;;;;;;;;;;5114711;27;20044;-57
2022/07/19 10:52:27;;;;;;;8.63;1.90;;;;;;;;;;5062813;28;20039;-56
2022/07/19 10:55:11;;;;;;;3.13;2.35;;;;;;;;;;5112381;27;20038;-56
2022/07/19 10:57:38;;;;;;;4.00;1.83;;;;;;;;;;5107934;27;20044;-56
2022/07/19 11:00:20;;;;;;;2.33;1.95;;;;;;;;;;5111877;27;20308;-56
2022/07/19 11:02:46;;;;;;;6.53;2.80;;;;;;;;;;5111563;27;20044;-57
2022/07/19 11:05:37;;;;;;;2.85;1.98;;;;;;;;;;5113390;27;20113;-57
2022/07/19 11:08:03;;;;;;;2.38;1.70;;;;;;;;;;5110239;27;20097;-56
2022/07/19 11:10:29;;;;;;;2.45;1.58;;;;;;;;;;5118085;27;20051;-57
2022/07/19 11:12:55;;;;;;;2.53;2.08;;;;;;;;;;5112038;27;20060;-57
2022/07/19 11:15:21;;;;;;;4.85;2.60;;;;;;;;;;5115746;27;20074;-56
2022/07/19 11:17:50;;;;;;;7.85;2.05;;;;;;;;;;5117633;27;20066;-56
2022/07/19 11:20:18;;;;;;;2.17;1.57;;;;;;;;;;5114424;27;20043;-56
2022/07/19 11:22:44;;;;;;;6.97;2.08;;;;;;;;;;5114299;27;20054;-54
2022/07/19 11:25:11;;;;;;;2.63;1.90;;;;;;;;;;5114620;27;20039;-53
2022/07/19 11:27:39;;;;;;;4.75;3.00;;;;;;;;;;5116967;27;20035;-57
2022/07/19 11:30:05;;;;;;;2.97;2.20;;;;;;;;;;5113710;27;20043;-56
2022/07/19 11:32:31;;;;;;;2.00;1.45;;;;;;;;;;5117876;27;20032;-55
2022/07/19 11:34:57;;;;;;;3.60;2.47;;;;;;;;;;5118835;27;20043;-57
2022/07/19 11:37:24;;;;;;;3.15;2.00;;;;;;;;;;5119273;27;20070;-57
2022/07/19 11:39:52;;;;;;;2.08;1.70;;;;;;;;;;5117004;27;20141;-54
2022/07/19 11:42:32;;;;;;;2.40;2.00;;;;;;;;;;5114963;27;20063;-55
2022/07/19 11:44:57;;;;;;;;;;;;;;;;;;5113849;28;20046;-54
2022/07/19 11:47:23;;;;;;;2.22;1.98;;;;;;;;;;5116460;27;19915;-56
2022/07/19 11:49:48;;;;;;;5.72;1.85;;;;;;;;;;5114543;27;20043;-56
2022/07/19 11:52:14;;;;;;;5.45;2.10;;;;;;;;;;5112547;28;20047;-57
2022/07/19 11:54:39;;;;;;;2.80;1.67;;;;;;;;;;5117834;27;20135;-56
2022/07/19 11:57:05;;;;;;;4.35;1.25;;;;;;;;;;5113348;27;20051;-57
2022/07/19 11:59:30;;;;;;;2.78;2.03;;;;;;;;;;5114588;27;20044;-57
2022/07/19 12:01:57;;;;;;;1.92;1.52;;;;;;;;;;5114332;27;20126;-54
2022/07/19 12:04:23;;;;;;;2.05;1.63;;;;;;;;;;5113352;27;20039;-57
2022/07/19 12:06:50;;;;;;;6.95;2.25;;;;;;;;;;5117534;27;20099;-56
2022/07/19 12:09:20;;;;;;;2.53;1.70;;;;;;;;;;5114573;27;20545;-55
2022/07/19 12:11:45;;;;;;;2.80;1.67;;;;;;;;;;5112826;27;20123;-56
2022/07/19 12:14:21;;;;;;;2.63;1.88;;;;;;;;;;5114070;27;20138;-57
2022/07/19 12:16:47;;;;;;;3.00;1.58;;;;;;;;;;5114421;27;20078;-57
2022/07/19 12:19:14;;;;;;;1.65;1.42;;;;;;;;;;5107578;28;20176;-56
2022/07/19 12:21:43;;;;;;;2.63;2.13;;;;;;;;;;5116140;27;20148;-57
2022/07/19 12:24:20;;;;;;;5.55;1.92;;;;;;;;;;5113928;27;20075;-58
2022/07/19 12:26:53;;;;;;;3.60;2.35;;;;;;;;;;5112588;27;20040;-57
2022/07/19 12:29:25;;;;;;;2.70;1.80;;;;;;;;;;5112882;27;20039;-57
2022/07/19 12:31:56;;;;;;;1.70;1.55;;;;;;;;;;5114666;27;20463;-58
2022/07/19 12:34:21;;;;;;;4.18;2.92;;;;;;;;;;5115969;27;20047;-58
2022/07/19 12:36:47;;;;;;;2.42;2.13;;;;;;;;;;5114951;27;20460;-57
2022/07/19 12:39:26;;;;;;;2.20;1.45;;;;;;;;;;5114685;27;20103;-57
2022/07/19 12:42:21;;;;;;;3.17;2.30;;;;;;;;;;5115149;27;20082;-57
2022/07/19 12:44:46;;;;;;;2.03;1.67;;;;;;;;;;5091215;27;20086;-57
2022/07/19 12:47:11;;;;;;;2.85;2.28;;;;;;;;;;5114021;27;20048;-56
2022/07/19 12:49:43;;;;;;;5.68;2.75;;;;;;;;;;5112378;28;20044;-54
2022/07/19 12:52:09;;;;;;;4.72;2.67;;;;;;;;;;5118711;27;20047;-56
2022/07/19 12:54:34;;;;;;;4.22;2.30;;;;;;;;;;5116508;27;20040;-57
2022/07/19 12:57:00;;;;;;;1.92;1.60;;;;;;;;;;5111753;27;20047;-56
2022/07/19 12:59:40;;;;;;;3.47;2.20;;;;;;;;;;5113043;28;20050;-57
2022/07/19 13:02:07;;;;;;;1.98;1.35;;;;;;;;;;5113677;27;20168;-57
2022/07/19 13:04:32;;;;;;;1.85;1.25;;;;;;;;;;5113867;27;20059;-57
2022/07/19 13:06:58;;;;;;;2.60;2.03;;;;;;;;;;5116492;27;20047;-58
2022/07/19 13:09:23;;;;;;;13.77;4.20;;;;;;;;;;5115568;27;20175;-55
2022/07/19 13:11:48;;;;;;;3.22;2.75;;;;;;;;;;5111514;27;20423;-57
2022/07/19 13:14:14;;;;;;;2.95;2.53;;;;;;;;;;5111083;27;20054;-56
2022/07/19 13:16:39;;;;;;;2.40;1.63;;;;;;;;;;5109266;27;20050;-58
2022/07/19 13:19:05;;;;;;;5.00;2.40;;;;;;;;;;5110355;27;20042;-57
2022/07/19 13:21:30;;;;;;;2.85;1.85;;;;;;;;;;5112675;27;20122;-57
2022/07/19 13:23:56;;;;;;;1.73;1.52;;;;;;;;;;5117501;27;20047;-57
2022/07/19 13:26:21;;;;;;;5.70;4.93;;;;;;;;;;5113497;27;20108;-57
2022/07/19 13:28:46;;;;;;;3.58;2.60;;;;;;;;;;5116333;27;20417;-57
2022/07/19 13:31:12;;;;;;;2.05;1.85;;;;;;;;;;5117722;27;20067;-55
2022/07/19 13:33:37;;;;;;;2.50;1.75;;;;;;;;;;5108938;27;20042;-57
2022/07/19 13:36:03;;;;;;;3.55;1.83;;;;;;;;;;5112373;27;20035;-57
2022/07/19 13:38:28;;;;;;;1.83;1.55;;;;;;;;;;5115009;27;20085;-56
2022/07/19 13:40:54;;;;;;;1.95;1.40;;;;;;;;;;5114714;27;20421;-57
2022/07/19 13:43:19;;;;;;;1.67;1.40;;;;;;;;;;5112238;27;20061;-57
2022/07/19 13:45:44;;;;;;;1.40;1.17;;;;;;;;;;5116063;27;20051;-56
2022/07/19 13:48:09;;;;;;;2.35;1.27;;;;;;;;;;5112583;27;20062;-56
2022/07/19 13:50:36;;;;;;;3.80;1.70;;;;;;;;;;5113628;27;20495;-58
2022/07/19 13:53:01;;;;;;;2.55;2.00;;;;;;;;;;5111042;27;20028;-57
2022/07/19 13:55:27;;;;;;;1.75;1.17;;;;;;;;;;5116515;27;20127;-54
2022/07/19 13:57:52;;;;;;;3.78;1.77;;;;;;;;;;5111419;27;20126;-58
2022/07/19 14:00:17;;;;;;;1.70;1.20;;;;;;;;;;5110114;27;20044;-57
2022/07/19 14:02:49;;;;;;;2.25;1.67;;;;;;;;;;5113816;27;20048;-57
2022/07/19 14:05:15;;;;;;;2.53;1.80;;;;;;;;;;5111701;27;20051;-57
2022/07/19 14:07:41;;;;;;;2.45;1.40;;;;;;;;;;5087510;27;20077;-55
2022/07/19 14:10:07;;;;;;;3.72;2.65;;;;;;;;;;5108105;28;20449;-56
2022/07/19 14:12:32;;;;;;;1.77;1.33;;;;;;;;;;5114299;27;20039;-55
2022/07/19 14:14:58;;;;;;;1.88;1.15;;;;;;;;;;5111883;27;20045;-55
2022/07/19 14:17:23;;;;;;;1.55;0.90;;;;;;;;;;5113497;27;20498;-56
2022/07/19 14:19:49;;;;;;;2.45;1.45;;;;;;;;;;5111416;27;20039;-57
2022/07/19 14:22:15;;;;;;;2.17;1.80;;;;;;;;;;5114799;27;20387;-56
2022/07/19 14:24:40;;;;;;;2.30;1.75;;;;;;;;;;5114643;27;20533;-57
2022/07/19 14:27:06;;;;;;;2.30;1.42;;;;;;;;;;5110377;27;20051;-57
2022/07/19 14:29:34;;;;;;;8.80;2.90;;;;;;;;;;5110100;27;20062;-58
2022/07/19 14:32:00;;;;;;;2.75;1.90;;;;;;;;;;5106771;27;20616;-57
2022/07/19 14:34:25;;;;;;;3.33;2.40;;;;;;;;;;5109458;27;20039;-57
2022/07/19 14:36:50;;;;;;;2.08;1.70;;;;;;;;;;5109382;27;20051;-57
2022/07/19 14:39:16;;;;;;;3.33;1.85;;;;;;;;;;5108226;27;20546;-57